Time;durP1;ratioP1;P1;durP2;ratioP2;P2;SDS_P1;SDS_P2;PMS_P1;PMS_P2;Temp;Humidity;BMP_temperature;BMP_pressure;BME280_temperature;BME280_humidity;BME280_pressure;Samples;Min_cycle;Max_cycle;Signal;HPM_P1;HPM_P2
2022/01/06 00:01:16;;;;;;;32.22;5.88;;;3.30;99.90;;;;;;5024036;28;20273;-77
2022/01/06 00:03:44;;;;;;;29.35;5.05;;;3.30;99.90;;;;;;5025903;28;20552;-77
2022/01/06 00:06:11;;;;;;;25.02;4.07;;;3.30;99.90;;;;;;5022357;28;20069;-76
2022/01/06 00:08:39;;;;;;;29.40;6.03;;;3.20;99.90;;;;;;5039254;28;20057;-77
2022/01/06 00:11:09;;;;;;;33.55;5.68;;;3.20;99.90;;;;;;5022284;28;20076;-77
2022/01/06 00:13:48;;;;;;;25.25;4.07;;;3.20;99.90;;;;;;5025469;28;20381;-77
2022/01/06 00:24:19;;;;;;;14.32;3.45;;;3.20;99.90;;;;;;5017712;28;20278;-76
2022/01/06 00:26:47;;;;;;;25.98;5.03;;;3.20;99.90;;;;;;4998197;28;20050;-76
2022/01/06 00:29:14;;;;;;;22.52;3.50;;;3.20;99.90;;;;;;4998419;28;20751;-77
2022/01/06 00:31:41;;;;;;;33.80;4.70;;;3.20;99.90;;;;;;4979286;28;20054;-77
2022/01/06 00:34:10;;;;;;;21.88;4.00;;;3.20;99.90;;;;;;4982648;28;20478;-76
2022/01/06 00:36:38;;;;;;;31.08;5.43;;;3.20;99.90;;;;;;4981211;28;20189;-77
2022/01/06 00:39:06;;;;;;;19.50;4.38;;;3.10;99.90;;;;;;4982866;28;20407;-77
2022/01/06 00:41:35;;;;;;;21.25;4.75;;;3.10;99.90;;;;;;4997191;28;20070;-76
2022/01/06 00:44:03;;;;;;;29.35;4.72;;;3.10;99.90;;;;;;4982524;28;20112;-77
2022/01/06 00:46:30;;;;;;;24.02;6.22;;;3.10;99.90;;;;;;4982938;28;20046;-76
2022/01/06 00:48:57;;;;;;;29.35;4.20;;;3.10;99.90;;;;;;4969851;28;20082;-77
2022/01/06 00:51:24;;;;;;;23.77;4.50;;;3.10;99.90;;;;;;4964100;28;20047;-77
2022/01/06 00:53:50;;;;;;;29.42;5.28;;;3.20;99.90;;;;;;4963975;28;20140;-77
2022/01/06 00:56:17;;;;;;;30.50;5.03;;;3.20;99.90;;;;;;4984425;28;20141;-76
2022/01/06 00:58:44;;;;;;;26.35;4.75;;;3.20;99.90;;;;;;4966481;28;20078;-77
2022/01/06 01:01:10;;;;;;;23.40;5.47;;;3.10;99.90;;;;;;4966413;28;20239;-77
2022/01/06 01:03:37;;;;;;;24.52;5.65;;;3.10;99.90;;;;;;4967136;28;20141;-77
2022/01/06 01:06:04;;;;;;;25.42;4.70;;;3.10;99.90;;;;;;4967604;28;20047;-76
2022/01/06 01:08:33;;;;;;;22.38;4.13;;;3.10;99.90;;;;;;4999261;28;20043;-76
2022/01/06 01:11:00;;;;;;;30.90;4.82;;;3.10;99.90;;;;;;4984304;28;20578;-77
2022/01/06 01:13:32;;;;;;;22.52;4.65;;;3.10;99.90;;;;;;4967226;28;20046;-76
2022/01/06 01:16:08;;;;;;;33.67;5.78;;;3.00;99.90;;;;;;4980950;28;20059;-77
2022/01/06 01:18:35;;;;;;;31.27;4.40;;;3.10;99.90;;;;;;4963573;28;20057;-77
2022/01/06 01:21:02;;;;;;;37.95;3.97;;;3.10;99.90;;;;;;4993731;28;20071;-77
2022/01/06 01:23:30;;;;;;;30.55;4.50;;;3.10;99.90;;;;;;4979757;28;20134;-77
2022/01/06 01:25:56;;;;;;;20.85;4.72;;;3.00;99.90;;;;;;4985686;28;20096;-76
2022/01/06 01:28:32;;;;;;;35.67;4.15;;;3.00;99.90;;;;;;5000184;28;20100;-77
2022/01/06 01:33:44;;;;;;;;;;;2.90;99.90;;;;;;5001986;28;20751;-77
2022/01/06 01:36:12;;;;;;;30.35;4.80;;;2.90;99.90;;;;;;5000410;28;19925;-77
2022/01/06 01:38:40;;;;;;;27.20;4.40;;;2.90;99.90;;;;;;4983724;28;20101;-76
2022/01/06 01:41:08;;;;;;;27.10;4.18;;;2.90;99.90;;;;;;5000577;28;20054;-77
2022/01/06 01:43:35;;;;;;;26.25;3.42;;;2.90;99.90;;;;;;4987375;28;20430;-77
2022/01/06 01:46:17;;;;;;;32.35;3.95;;;2.90;99.90;;;;;;4994314;28;20070;-77
2022/01/06 01:49:09;;;;;;;21.02;4.03;;;3.00;99.90;;;;;;4959068;28;20038;-77
2022/01/06 01:51:35;;;;;;;28.48;4.80;;;2.90;99.90;;;;;;4967145;28;20142;-78
2022/01/06 01:54:02;;;;;;;22.20;3.85;;;2.80;99.90;;;;;;4967592;28;20138;-78
2022/01/06 01:56:29;;;;;;;18.45;4.38;;;2.80;99.90;;;;;;4967730;28;20109;-78
2022/01/06 01:58:57;;;;;;;27.92;5.07;;;2.80;99.90;;;;;;4999342;28;20617;-77
2022/01/06 02:01:24;;;;;;;26.25;4.68;;;2.80;99.90;;;;;;4960084;28;20046;-77
2022/01/06 02:03:51;;;;;;;35.97;5.85;;;2.70;99.90;;;;;;4986980;28;20049;-78
2022/01/06 02:06:18;;;;;;;21.05;3.78;;;2.70;99.90;;;;;;4983844;28;20596;-77
2022/01/06 02:08:45;;;;;;;34.15;5.22;;;2.60;99.90;;;;;;4974561;28;20051;-76
2022/01/06 02:11:12;;;;;;;27.95;6.80;;;2.60;99.90;;;;;;4965140;28;20043;-77
2022/01/06 02:13:51;;;;;;;20.73;4.95;;;2.50;99.90;;;;;;4964669;28;20130;-76
2022/01/06 02:16:24;;;;;;;27.30;5.93;;;2.50;99.90;;;;;;4963552;28;20058;-76
2022/01/06 02:18:52;;;;;;;18.73;3.75;;;2.40;99.90;;;;;;4960171;28;20042;-76
2022/01/06 02:21:20;;;;;;;27.40;5.53;;;2.40;99.90;;;;;;4984215;28;20149;-76
2022/01/06 02:23:47;;;;;;;24.92;4.85;;;2.30;99.90;;;;;;5018861;28;20064;-76
2022/01/06 02:26:14;;;;;;;22.00;5.00;;;2.20;99.90;;;;;;5018032;28;20092;-77
2022/01/06 02:28:41;;;;;;;31.48;6.55;;;2.30;99.90;;;;;;4992393;28;20073;-77
2022/01/06 02:31:08;;;;;;;28.50;5.97;;;2.30;99.90;;;;;;4975915;28;20306;-76
2022/01/06 02:33:36;;;;;;;20.73;5.38;;;2.30;99.90;;;;;;4964738;28;20084;-77
2022/01/06 02:36:04;;;;;;;27.65;5.72;;;2.30;99.90;;;;;;4964322;28;20276;-77
2022/01/06 02:38:30;;;;;;;22.60;5.35;;;2.30;99.90;;;;;;4964069;28;20239;-78
2022/01/06 02:40:57;;;;;;;22.08;5.28;;;2.30;99.90;;;;;;4977943;28;20067;-77
2022/01/06 02:43:25;;;;;;;33.83;7.78;;;2.20;99.90;;;;;;4972446;28;20105;-77
2022/01/06 02:45:52;;;;;;;10.57;3.42;;;2.00;99.90;;;;;;4984721;28;20072;-77
2022/01/06 02:48:18;;;;;;;9.45;3.08;;;1.90;99.90;;;;;;4980560;28;20125;-77
2022/01/06 02:50:48;;;;;;;19.67;4.32;;;1.70;99.90;;;;;;5008862;28;20038;-77
2022/01/06 02:53:17;;;;;;;14.93;3.10;;;1.70;99.90;;;;;;4979589;28;20047;-75
2022/01/06 02:55:50;;;;;;;4.88;1.90;;;1.60;99.90;;;;;;4997128;28;20550;-77
2022/01/06 02:58:37;;;;;;;11.70;2.53;;;1.60;99.90;;;;;;4984484;28;20054;-78
2022/01/06 03:01:04;;;;;;;11.73;2.42;;;1.60;99.90;;;;;;4976610;28;20046;-78
2022/01/06 03:03:31;;;;;;;6.93;1.67;;;1.60;99.90;;;;;;4965622;28;20050;-78
2022/01/06 03:05:58;;;;;;;14.10;2.20;;;1.60;99.90;;;;;;4970869;28;20081;-77
2022/01/06 03:08:26;;;;;;;19.00;3.70;;;1.60;99.90;;;;;;4982466;28;20514;-77
2022/01/06 03:10:54;;;;;;;12.32;3.38;;;1.70;99.90;;;;;;4993831;28;20050;-77
2022/01/06 03:13:21;;;;;;;13.90;4.20;;;1.70;99.90;;;;;;4962672;28;20288;-76
2022/01/06 03:15:47;;;;;;;14.95;4.30;;;1.70;99.90;;;;;;4968617;28;20121;-76
2022/01/06 03:18:14;;;;;;;12.95;4.10;;;1.70;99.90;;;;;;4982688;28;20050;-77
2022/01/06 03:20:41;;;;;;;15.52;5.20;;;1.60;99.90;;;;;;4977604;28;20042;-76
2022/01/06 03:23:07;;;;;;;21.85;5.88;;;1.60;99.90;;;;;;4964524;28;20058;-76
2022/01/06 03:25:34;;;;;;;17.15;4.53;;;1.70;99.90;;;;;;4997486;28;20073;-76
2022/01/06 03:28:01;;;;;;;18.23;4.88;;;1.70;99.90;;;;;;4983066;28;20198;-76
2022/01/06 03:30:27;;;;;;;14.73;5.43;;;1.70;99.90;;;;;;4995624;28;20522;-76
2022/01/06 03:32:54;;;;;;;17.30;5.13;;;1.70;99.90;;;;;;4995566;28;20125;-76
2022/01/06 03:35:24;;;;;;;22.85;6.15;;;1.80;99.90;;;;;;4993047;28;20526;-78
2022/01/06 03:37:51;;;;;;;22.27;5.80;;;1.70;99.90;;;;;;4961637;28;20078;-76
2022/01/06 03:40:18;;;;;;;16.88;4.95;;;1.70;99.90;;;;;;4963433;28;20059;-75
2022/01/06 03:42:45;;;;;;;13.65;4.95;;;1.70;99.90;;;;;;4944690;28;20760;-78
2022/01/06 03:45:15;;;;;;;25.73;6.03;;;1.70;99.90;;;;;;4944083;28;20055;-75
2022/01/06 03:47:42;;;;;;;17.58;5.07;;;1.70;99.90;;;;;;4983279;28;20051;-75
2022/01/06 03:50:11;;;;;;;19.60;4.72;;;1.60;99.90;;;;;;4961918;28;20118;-75
2022/01/06 03:52:38;;;;;;;20.73;5.20;;;1.60;99.90;;;;;;4984599;28;20112;-75
2022/01/06 03:55:11;;;;;;;16.20;5.80;;;1.60;99.90;;;;;;5002502;28;20096;-75
2022/01/06 03:57:37;;;;;;;20.95;5.47;;;1.60;99.90;;;;;;4987994;28;20081;-75
2022/01/06 04:00:10;;;;;;;20.10;5.28;;;1.70;99.90;;;;;;4983113;28;20046;-77
2022/01/06 04:02:41;;;;;;;18.95;5.97;;;1.60;99.90;;;;;;4983425;28;20835;-74
2022/01/06 04:05:09;;;;;;;21.10;5.57;;;1.60;99.90;;;;;;4995630;28;20070;-74
2022/01/06 04:07:36;;;;;;;12.50;5.30;;;1.70;99.90;;;;;;4977520;28;20142;-74
2022/01/06 04:10:05;;;;;;;15.93;5.50;;;1.60;99.90;;;;;;4962580;28;20109;-74
2022/01/06 04:12:36;;;;;;;19.27;5.15;;;1.50;99.90;;;;;;4981958;28;20046;-74
2022/01/06 04:15:12;;;;;;;18.20;5.32;;;1.40;99.90;;;;;;4979960;28;20077;-76
2022/01/06 04:17:40;;;;;;;14.32;4.57;;;1.50;99.90;;;;;;4975669;28;20153;-76
2022/01/06 04:20:08;;;;;;;15.30;5.65;;;1.40;99.90;;;;;;4962703;28;20068;-76
2022/01/06 04:22:35;;;;;;;12.00;4.85;;;1.40;99.90;;;;;;4962383;28;20074;-76
2022/01/06 04:25:04;;;;;;;19.55;5.45;;;1.40;99.90;;;;;;4962393;28;20052;-76
2022/01/06 04:27:31;;;;;;;21.30;5.30;;;1.40;99.90;;;;;;5015243;28;20236;-76
2022/01/06 04:29:58;;;;;;;18.92;5.68;;;1.30;99.90;;;;;;4995431;28;20526;-76
2022/01/06 04:32:24;;;;;;;15.40;5.00;;;1.40;99.90;;;;;;4979454;28;20215;-76
2022/01/06 04:34:51;;;;;;;17.25;5.65;;;1.30;99.90;;;;;;4966370;28;20158;-76
2022/01/06 04:37:18;;;;;;;21.42;5.10;;;1.30;99.90;;;;;;4965940;28;20515;-76
2022/01/06 04:39:44;;;;;;;24.23;7.35;;;1.30;99.90;;;;;;4966065;28;20098;-76
2022/01/06 04:42:11;;;;;;;19.38;6.10;;;1.30;99.90;;;;;;4981867;28;20547;-77
2022/01/06 04:44:38;;;;;;;21.50;7.43;;;1.30;99.90;;;;;;4986722;28;20042;-75
2022/01/06 04:47:06;;;;;;;25.20;5.93;;;1.20;99.90;;;;;;5000010;28;20042;-75
2022/01/06 04:49:33;;;;;;;31.30;6.47;;;1.20;99.90;;;;;;4985982;28;20134;-75
2022/01/06 04:52:01;;;;;;;28.73;6.90;;;1.30;99.90;;;;;;4985839;28;20043;-78
2022/01/06 04:54:27;;;;;;;28.75;6.35;;;1.30;99.90;;;;;;5000356;28;20054;-75
2022/01/06 04:56:54;;;;;;;18.08;5.63;;;1.30;99.90;;;;;;4985849;28;20050;-77
2022/01/06 04:59:21;;;;;;;22.63;6.47;;;1.30;99.90;;;;;;4986456;28;20061;-77
2022/01/06 05:01:48;;;;;;;24.58;6.40;;;1.30;99.90;;;;;;5001621;28;20584;-77
2022/01/06 05:04:15;;;;;;;20.63;6.32;;;1.30;99.90;;;;;;5001038;28;20057;-77
2022/01/06 05:06:42;;;;;;;21.52;6.35;;;1.20;99.90;;;;;;5011970;28;20112;-77
2022/01/06 05:09:08;;;;;;;17.80;6.07;;;1.20;99.90;;;;;;4994421;28;20094;-77
2022/01/06 05:11:35;;;;;;;27.85;7.53;;;1.20;99.90;;;;;;4985100;28;20073;-77
2022/01/06 05:14:02;;;;;;;18.88;8.63;;;1.30;99.90;;;;;;4987341;28;20078;-77
2022/01/06 05:16:29;;;;;;;26.02;5.85;;;1.30;99.90;;;;;;4974412;28;20043;-77
2022/01/06 05:18:55;;;;;;;27.55;7.38;;;1.30;99.90;;;;;;4979217;28;20143;-77
2022/01/06 05:21:22;;;;;;;19.83;7.28;;;1.20;99.90;;;;;;4992717;28;21381;-77
2022/01/06 05:23:50;;;;;;;18.02;7.32;;;1.30;99.90;;;;;;4987797;28;20038;-75
2022/01/06 05:26:16;;;;;;;23.08;6.10;;;1.30;99.90;;;;;;4999479;28;20626;-75
2022/01/06 05:28:43;;;;;;;21.65;6.13;;;1.30;99.90;;;;;;4984677;28;20157;-75
2022/01/06 05:31:11;;;;;;;24.80;6.72;;;1.40;99.90;;;;;;4993775;28;20108;-76
2022/01/06 05:33:38;;;;;;;19.90;6.88;;;1.40;99.90;;;;;;5005247;28;20042;-74
2022/01/06 05:36:05;;;;;;;21.05;7.00;;;1.30;99.90;;;;;;4999068;28;20639;-75
2022/01/06 05:38:32;;;;;;;21.40;7.68;;;1.30;99.90;;;;;;4985851;28;20351;-78
2022/01/06 05:40:59;;;;;;;24.15;8.80;;;1.30;99.90;;;;;;4978178;28;20070;-76
2022/01/06 05:43:27;;;;;;;28.58;8.80;;;1.30;99.90;;;;;;4964210;28;20711;-76
2022/01/06 05:45:56;;;;;;;22.40;7.68;;;1.30;99.90;;;;;;4980650;28;20051;-78
2022/01/06 05:48:23;;;;;;;27.08;8.40;;;1.30;99.90;;;;;;4981734;28;20078;-78
2022/01/06 05:50:51;;;;;;;24.13;7.80;;;1.30;99.90;;;;;;4967806;28;20121;-77
2022/01/06 05:53:18;;;;;;;30.05;7.38;;;1.30;99.90;;;;;;4989190;28;20499;-77
2022/01/06 05:55:45;;;;;;;29.55;7.93;;;1.30;99.90;;;;;;4978313;28;20046;-77
2022/01/06 05:58:12;;;;;;;25.20;7.32;;;1.40;99.90;;;;;;4983852;28;20259;-77
2022/01/06 06:00:39;;;;;;;28.45;7.85;;;1.40;99.90;;;;;;4967677;28;20066;-76
2022/01/06 06:03:06;;;;;;;26.33;8.73;;;1.40;99.90;;;;;;4964402;28;20195;-76
2022/01/06 06:05:33;;;;;;;24.73;9.32;;;1.40;99.90;;;;;;4969672;28;20053;-76
2022/01/06 06:08:00;;;;;;;30.73;10.57;;;1.50;99.90;;;;;;4982740;28;20073;-77
2022/01/06 06:10:27;;;;;;;31.98;9.50;;;1.60;99.90;;;;;;4981667;28;20047;-76
2022/01/06 06:12:53;;;;;;;31.23;11.43;;;1.70;99.90;;;;;;4965923;28;20055;-74
2022/01/06 06:15:21;;;;;;;39.42;11.38;;;1.60;99.90;;;;;;4964620;28;20113;-75
2022/01/06 06:17:48;;;;;;;37.55;12.10;;;1.60;99.90;;;;;;4996021;23;20514;-81
2022/01/06 06:20:15;;;;;;;44.95;13.43;;;1.60;99.90;;;;;;4976801;28;20061;-83
2022/01/06 06:22:41;;;;;;;45.85;14.85;;;1.70;99.90;;;;;;5017564;28;20038;-83
2022/01/06 06:25:09;;;;;;;48.95;16.40;;;1.70;99.90;;;;;;5009311;28;20061;-82
2022/01/06 06:27:36;;;;;;;38.80;12.45;;;1.60;99.90;;;;;;5009265;28;20042;-83
2022/01/06 06:30:04;;;;;;;42.45;13.63;;;1.60;99.90;;;;;;5009983;28;20045;-82
2022/01/06 06:32:33;;;;;;;53.40;14.23;;;1.60;99.90;;;;;;5005747;28;20034;-84
2022/01/06 06:35:00;;;;;;;47.65;15.18;;;1.60;99.90;;;;;;5024511;28;20278;-82
2022/01/06 06:37:27;;;;;;;52.15;15.27;;;1.60;99.90;;;;;;5004503;28;20042;-82
2022/01/06 06:39:54;;;;;;;43.05;14.75;;;1.70;99.90;;;;;;5023112;28;20168;-82
2022/01/06 06:42:21;;;;;;;51.13;17.10;;;1.70;99.90;;;;;;5027823;23;20112;-72
2022/01/06 06:44:48;;;;;;;45.13;13.45;;;1.70;99.90;;;;;;4988776;28;20561;-72
2022/01/06 06:47:14;;;;;;;49.33;13.20;;;1.70;99.90;;;;;;4954735;28;20082;-72
2022/01/06 06:49:41;;;;;;;37.70;12.48;;;1.60;99.90;;;;;;4954427;28;20078;-72
2022/01/06 06:52:08;;;;;;;53.75;13.57;;;1.60;99.90;;;;;;4960232;28;20466;-73
2022/01/06 06:54:35;;;;;;;41.35;13.40;;;1.60;99.90;;;;;;4975522;28;20086;-72
2022/01/06 06:57:02;;;;;;;38.83;13.52;;;1.60;99.90;;;;;;4974568;28;20077;-71
2022/01/06 06:59:29;;;;;;;42.95;12.18;;;1.60;99.90;;;;;;4974786;28;20097;-73
2022/01/06 07:01:56;;;;;;;48.15;13.20;;;1.60;99.90;;;;;;4974791;28;20061;-72
2022/01/06 07:04:23;;;;;;;32.10;11.52;;;1.60;99.90;;;;;;4990271;28;20050;-72
2022/01/06 07:07:10;;;;;;;41.33;11.85;;;1.60;99.90;;;;;;4970566;28;20632;-73
2022/01/06 07:09:37;;;;;;;49.67;13.10;;;1.70;99.90;;;;;;4975313;28;20555;-72
2022/01/06 07:12:04;;;;;;;38.72;12.50;;;1.70;99.90;;;;;;4990266;28;20430;-73
2022/01/06 07:14:31;;;;;;;42.17;14.02;;;1.70;99.90;;;;;;4992618;28;20045;-73
2022/01/06 07:16:58;;;;;;;41.80;14.63;;;1.70;99.90;;;;;;4956755;28;20053;-72
2022/01/06 07:19:25;;;;;;;45.38;14.35;;;1.70;99.90;;;;;;4938465;28;20117;-72
2022/01/06 07:21:51;;;;;;;40.75;14.32;;;1.80;99.90;;;;;;4981356;28;20056;-72
2022/01/06 07:24:18;;;;;;;35.55;9.57;;;1.70;99.90;;;;;;4978045;28;20295;-73
2022/01/06 07:26:45;;;;;;;31.17;9.77;;;1.70;99.90;;;;;;4937937;28;20141;-72
2022/01/06 07:29:12;;;;;;;28.52;10.18;;;1.70;99.90;;;;;;4955183;28;20600;-72
2022/01/06 07:31:39;;;;;;;40.10;11.48;;;1.70;99.90;;;;;;4982838;28;20043;-72
2022/01/06 07:34:06;;;;;;;31.77;9.95;;;1.70;99.90;;;;;;4974306;28;20153;-72
2022/01/06 07:36:33;;;;;;;36.10;11.88;;;1.70;99.90;;;;;;4969814;28;20045;-72
2022/01/06 07:39:00;;;;;;;34.67;11.27;;;1.80;99.90;;;;;;4959660;28;20457;-71
2022/01/06 07:41:27;;;;;;;29.88;9.77;;;1.70;99.90;;;;;;4969569;28;20053;-70
2022/01/06 07:43:54;;;;;;;32.05;10.30;;;1.70;99.90;;;;;;4973507;28;20268;-70
2022/01/06 07:46:21;;;;;;;30.73;10.60;;;1.70;99.90;;;;;;4967483;28;20050;-70
2022/01/06 07:48:55;;;;;;;38.05;10.98;;;1.60;99.90;;;;;;4957036;28;20133;-70
2022/01/06 07:51:27;;;;;;;43.20;12.35;;;1.70;99.90;;;;;;4987867;28;20527;-71
2022/01/06 07:53:55;;;;;;;40.63;11.57;;;1.70;99.90;;;;;;4993578;28;20699;-71
2022/01/06 07:56:22;;;;;;;33.53;11.00;;;1.70;99.90;;;;;;4992077;28;20066;-70
2022/01/06 07:58:49;;;;;;;24.20;9.70;;;1.70;99.90;;;;;;4993948;28;20045;-70
2022/01/06 08:01:16;;;;;;;26.20;9.95;;;1.70;99.90;;;;;;4971436;28;20781;-70
2022/01/06 08:03:43;;;;;;;29.25;11.15;;;1.80;99.90;;;;;;4954871;28;20055;-70
2022/01/06 08:06:12;;;;;;;29.33;10.05;;;1.80;99.90;;;;;;4952429;28;20066;-70
2022/01/06 08:08:39;;;;;;;57.35;13.65;;;1.70;99.90;;;;;;4950732;28;20098;-72
2022/01/06 08:11:06;;;;;;;44.58;12.73;;;1.70;99.90;;;;;;4949140;28;20050;-71
2022/01/06 08:13:33;;;;;;;35.42;13.60;;;1.70;99.90;;;;;;4951046;28;20042;-72
2022/01/06 08:16:00;;;;;;;42.58;14.77;;;1.70;99.90;;;;;;4950175;28;20043;-71
2022/01/06 08:18:27;;;;;;;40.55;14.57;;;1.70;99.90;;;;;;4966274;28;20137;-72
2022/01/06 08:20:55;;;;;;;40.05;13.85;;;1.60;99.90;;;;;;4954832;28;20488;-72
2022/01/06 08:23:22;;;;;;;61.83;21.77;;;1.70;99.90;;;;;;4952456;28;20054;-71
2022/01/06 08:25:49;;;;;;;60.22;18.83;;;1.60;99.90;;;;;;4954618;28;20047;-71
2022/01/06 08:28:16;;;;;;;65.60;22.73;;;1.60;99.90;;;;;;4974497;28;20049;-72
2022/01/06 08:30:43;;;;;;;56.85;20.58;;;1.60;99.90;;;;;;4968937;28;20105;-70
2022/01/06 08:33:10;;;;;;;50.55;16.48;;;1.70;99.90;;;;;;4969910;28;20097;-71
2022/01/06 08:35:36;;;;;;;52.42;16.70;;;1.70;99.90;;;;;;4937864;28;20121;-71
2022/01/06 08:38:03;;;;;;;46.75;16.88;;;1.60;99.90;;;;;;4954151;28;20061;-71
2022/01/06 08:40:31;;;;;;;53.97;16.60;;;1.60;99.90;;;;;;4953640;28;20109;-72
2022/01/06 08:42:58;;;;;;;56.20;17.13;;;1.60;99.90;;;;;;4956211;28;20537;-71
2022/01/06 08:45:25;;;;;;;42.17;14.05;;;1.70;99.90;;;;;;4953835;28;20046;-72
2022/01/06 08:47:52;;;;;;;46.72;15.18;;;1.70;99.90;;;;;;4954978;28;20113;-71
2022/01/06 08:50:19;;;;;;;60.20;18.10;;;1.80;99.90;;;;;;4953843;28;20039;-72
2022/01/06 08:52:46;;;;;;;57.85;16.92;;;1.80;99.90;;;;;;4955959;28;20057;-72
2022/01/06 08:55:14;;;;;;;46.47;16.83;;;1.80;99.90;;;;;;4953140;28;20054;-72
2022/01/06 08:57:41;;;;;;;45.70;15.50;;;1.80;99.90;;;;;;4955522;28;20129;-73
2022/01/06 09:00:10;;;;;;;42.42;15.63;;;1.70;99.90;;;;;;4954903;28;20133;-73
2022/01/06 09:02:37;;;;;;;57.35;16.65;;;1.80;99.90;;;;;;4974262;28;20456;-73
2022/01/06 09:05:09;;;;;;;64.07;20.55;;;1.80;99.90;;;;;;4957727;28;20560;-74
2022/01/06 09:07:37;;;;;;;55.38;18.73;;;1.80;99.90;;;;;;4971503;28;20575;-73
2022/01/06 09:10:04;;;;;;;71.70;20.38;;;1.80;99.90;;;;;;4974261;28;20059;-74
2022/01/06 09:12:31;;;;;;;80.45;25.50;;;1.90;99.90;;;;;;4987486;28;20059;-73
2022/01/06 09:14:58;;;;;;;73.70;24.65;;;1.90;99.90;;;;;;4974774;28;20374;-74
2022/01/06 09:17:25;;;;;;;67.22;22.70;;;1.90;99.90;;;;;;4971326;28;20273;-74
2022/01/06 09:19:51;;;;;;;75.22;24.77;;;1.90;99.90;;;;;;4992862;28;20606;-73
2022/01/06 09:22:18;;;;;;;66.95;23.30;;;1.90;99.90;;;;;;5001110;28;20128;-76
2022/01/06 09:24:45;;;;;;;74.20;20.92;;;1.90;99.90;;;;;;4976504;28;20047;-74
2022/01/06 09:27:12;;;;;;;75.95;22.80;;;1.90;99.90;;;;;;4975654;28;20050;-74
2022/01/06 09:29:39;;;;;;;66.15;21.08;;;2.00;99.90;;;;;;4977986;28;20042;-75
2022/01/06 09:32:07;;;;;;;60.95;19.88;;;2.00;99.90;;;;;;4975734;28;20084;-73
2022/01/06 09:34:34;;;;;;;73.97;23.02;;;2.10;99.90;;;;;;4977731;28;20417;-74
2022/01/06 09:37:01;;;;;;;70.57;22.05;;;2.10;99.90;;;;;;4976358;28;20544;-74
2022/01/06 09:39:28;;;;;;;59.47;22.17;;;2.20;99.90;;;;;;4978007;28;20050;-74
2022/01/06 09:41:55;;;;;;;65.78;22.02;;;2.30;99.90;;;;;;4945808;28;20051;-75
2022/01/06 09:44:22;;;;;;;59.97;18.63;;;2.30;99.90;;;;;;4941307;28;20055;-74
2022/01/06 09:47:01;;;;;;;57.63;19.70;;;2.30;99.90;;;;;;4971605;28;20124;-73
2022/01/06 09:49:28;;;;;;;55.70;20.60;;;2.40;99.90;;;;;;4955072;28;20054;-74
2022/01/06 09:51:55;;;;;;;60.20;21.58;;;2.40;99.90;;;;;;4955497;28;20049;-74
2022/01/06 09:54:22;;;;;;;73.47;22.40;;;2.40;99.90;;;;;;4958582;28;20338;-74
2022/01/06 09:56:48;;;;;;;59.42;22.35;;;2.40;99.90;;;;;;4954191;28;20053;-75
2022/01/06 09:59:15;;;;;;;61.72;21.38;;;2.30;99.90;;;;;;4958818;28;20386;-74
2022/01/06 10:01:42;;;;;;;71.38;21.95;;;2.30;99.90;;;;;;4958341;28;20492;-74
2022/01/06 10:04:17;;;;;;;51.75;21.42;;;2.20;99.90;;;;;;4957659;28;20054;-75
2022/01/06 10:06:45;;;;;;;;;;;2.10;99.90;;;;;;4938591;28;20512;-73
2022/01/06 10:09:12;;;;;;;60.85;22.20;;;2.10;99.90;;;;;;4975032;28;19936;-74
2022/01/06 10:11:39;;;;;;;58.67;23.08;;;2.00;99.90;;;;;;4959225;28;20122;-73
2022/01/06 10:14:11;;;;;;;68.07;25.27;;;2.00;99.90;;;;;;4955949;28;20399;-74
2022/01/06 10:16:40;;;;;;;71.18;26.90;;;1.90;99.90;;;;;;4953393;28;20055;-73
2022/01/06 10:19:10;;;;;;;81.65;27.75;;;2.10;99.90;;;;;;4958090;28;20058;-74
2022/01/06 10:21:40;;;;;;;94.50;29.08;;;2.10;99.90;;;;;;4953860;28;20070;-73
2022/01/06 10:24:10;;;;;;;80.53;30.23;;;2.20;99.90;;;;;;4953907;28;20050;-75
2022/01/06 10:26:49;;;;;;;52.75;22.30;;;2.10;99.90;;;;;;4956920;28;20330;-74
2022/01/06 10:29:18;;;;;;;51.70;22.35;;;2.00;99.90;;;;;;4957910;28;20051;-75
2022/01/06 10:31:45;;;;;;;50.25;21.55;;;1.90;99.90;;;;;;4956024;28;20139;-74
2022/01/06 10:34:13;;;;;;;60.90;22.23;;;1.90;99.90;;;;;;4956365;28;20272;-73
2022/01/06 10:36:41;;;;;;;55.17;21.17;;;2.00;99.90;;;;;;4955778;28;20050;-73
2022/01/06 10:39:09;;;;;;;50.80;21.05;;;2.10;99.90;;;;;;4956998;28;20042;-76
2022/01/06 10:41:38;;;;;;;55.35;22.05;;;2.20;99.90;;;;;;4971770;28;20050;-74
2022/01/06 10:44:08;;;;;;;52.83;22.05;;;2.10;99.90;;;;;;4956943;28;20058;-74
2022/01/06 10:46:38;;;;;;;44.10;22.15;;;2.20;99.90;;;;;;4954153;28;20046;-73
2022/01/06 10:49:09;;;;;;;45.85;21.60;;;2.20;99.90;;;;;;4957344;28;20489;-74
2022/01/06 10:51:40;;;;;;;43.92;19.77;;;2.30;99.90;;;;;;4937333;28;20039;-73
2022/01/06 10:54:15;;;;;;;40.47;19.20;;;2.30;99.90;;;;;;4955869;28;20069;-74
2022/01/06 10:56:42;;;;;;;49.70;22.30;;;2.30;99.90;;;;;;4953834;28;20077;-73
2022/01/06 10:59:09;;;;;;;49.03;19.88;;;2.30;99.90;;;;;;4954468;28;20070;-75
2022/01/06 11:01:37;;;;;;;53.40;20.67;;;2.30;99.90;;;;;;4937328;28;20055;-74
2022/01/06 11:04:04;;;;;;;51.08;21.75;;;2.40;99.90;;;;;;4948192;28;20059;-73
2022/01/06 11:06:31;;;;;;;68.40;22.95;;;2.40;99.90;;;;;;4929271;28;20137;-74
2022/01/06 11:08:59;;;;;;;49.28;22.30;;;2.50;99.90;;;;;;4941143;28;20057;-74
2022/01/06 11:11:30;;;;;;;43.70;22.10;;;2.60;99.90;;;;;;4951786;28;20043;-74
2022/01/06 11:13:58;;;;;;;53.28;20.63;;;2.60;99.90;;;;;;4937529;28;20058;-74
2022/01/06 11:16:25;;;;;;;43.28;21.08;;;2.60;99.90;;;;;;4936474;28;20090;-73
2022/01/06 11:18:57;;;;;;;42.70;20.48;;;2.60;99.90;;;;;;4937450;28;20051;-73
2022/01/06 11:21:35;;;;;;;47.30;18.45;;;2.60;99.90;;;;;;4961640;28;20520;-73
2022/01/06 11:24:03;;;;;;;40.22;19.00;;;2.70;99.90;;;;;;4952858;28;20047;-72
2022/01/06 11:26:30;;;;;;;37.35;18.38;;;2.60;99.90;;;;;;4953955;28;20063;-72
2022/01/06 11:29:00;;;;;;;38.78;18.10;;;2.60;99.90;;;;;;4955203;28;20059;-73
2022/01/06 11:31:36;;;;;;;43.63;18.70;;;2.70;99.90;;;;;;4956082;28;20051;-72
2022/01/06 11:34:20;;;;;;;34.70;17.58;;;2.50;99.90;;;;;;4953823;28;20050;-75
2022/01/06 11:36:54;;;;;;;41.75;18.23;;;2.50;99.90;;;;;;4932760;28;20087;-72
2022/01/06 11:39:21;;;;;;;36.90;18.98;;;2.60;99.90;;;;;;4936403;28;20086;-72
2022/01/06 11:41:47;;;;;;;52.85;20.67;;;2.80;99.90;;;;;;4953654;28;20058;-72
2022/01/06 11:44:20;;;;;;;35.05;15.55;;;2.90;99.90;;;;;;4935067;28;20541;-73
2022/01/06 11:46:50;;;;;;;39.00;14.35;;;3.00;99.90;;;;;;4950949;28;20053;-72
2022/01/06 11:49:38;;;;;;;35.03;13.95;;;2.90;99.90;;;;;;4950440;28;20143;-73
2022/01/06 11:52:16;;;;;;;28.73;13.23;;;2.90;99.90;;;;;;4942519;28;20047;-72
2022/01/06 11:54:54;;;;;;;25.92;12.73;;;2.90;99.90;;;;;;4935274;29;20577;-72
2022/01/06 11:57:35;;;;;;;29.17;13.65;;;2.80;99.90;;;;;;4933128;28;20047;-71
2022/01/06 12:00:16;;;;;;;42.28;13.85;;;2.90;99.90;;;;;;4934407;29;20055;-73
2022/01/06 12:02:54;;;;;;;33.90;13.20;;;2.90;99.90;;;;;;4934198;28;20098;-72
2022/01/06 12:05:21;;;;;;;25.13;12.68;;;2.90;99.90;;;;;;4938119;28;20055;-72
2022/01/06 12:07:50;;;;;;;40.88;15.40;;;2.80;99.90;;;;;;4952325;28;20049;-72
2022/01/06 12:10:17;;;;;;;34.33;15.63;;;2.80;99.90;;;;;;4953736;28;20427;-71
2022/01/06 12:12:44;;;;;;;31.23;15.13;;;2.80;99.90;;;;;;4951326;28;20043;-71
2022/01/06 12:15:14;;;;;;;17.65;12.52;;;2.80;99.90;;;;;;4952899;28;20047;-72
2022/01/06 12:20:29;;;;;;;35.15;14.07;;;2.90;99.90;;;;;;4942157;28;20130;-79
2022/01/06 12:22:56;;;;;;;30.52;15.57;;;2.90;99.90;;;;;;4939931;28;20051;-77
2022/01/06 12:25:25;;;;;;;27.52;11.70;;;3.10;99.90;;;;;;4946730;28;20062;-82
2022/01/06 12:27:55;;;;;;;30.50;13.90;;;3.10;99.90;;;;;;4941229;28;20054;-82
2022/01/06 12:30:25;;;;;;;19.25;11.63;;;3.00;99.90;;;;;;4966342;28;20066;-78
2022/01/06 12:33:00;;;;;;;28.17;13.88;;;3.10;99.90;;;;;;4960889;28;20075;-77
2022/01/06 12:35:52;;;;;;;28.88;13.57;;;3.10;99.90;;;;;;4931120;28;20061;-77
2022/01/06 12:38:32;;;;;;;31.98;14.18;;;3.10;99.90;;;;;;4942884;28;20053;-77
2022/01/06 12:40:59;;;;;;;30.65;14.90;;;3.20;99.90;;;;;;4946949;28;20070;-76
2022/01/06 12:43:37;;;;;;;25.45;12.80;;;3.10;99.90;;;;;;4956285;28;20062;-76
2022/01/06 12:46:17;;;;;;;26.05;13.27;;;3.20;99.90;;;;;;4958784;28;20060;-75
2022/01/06 12:48:49;;;;;;;37.30;13.60;;;3.20;99.90;;;;;;4965029;28;20047;-74
2022/01/06 12:51:23;;;;;;;30.92;13.65;;;3.30;99.90;;;;;;4979146;28;20187;-75
2022/01/06 12:54:11;;;;;;;40.67;14.88;;;3.30;99.90;;;;;;4971784;28;20527;-77
2022/01/06 12:56:43;;;;;;;28.33;13.05;;;3.50;99.90;;;;;;4976722;28;20061;-76
2022/01/06 12:59:24;;;;;;;32.63;13.25;;;3.70;99.90;;;;;;4971422;28;20135;-77
2022/01/06 13:01:57;;;;;;;38.15;13.93;;;3.80;99.90;;;;;;4954585;28;20134;-76
2022/01/06 13:04:28;;;;;;;33.33;13.55;;;3.90;99.90;;;;;;4952545;29;20047;-74